createdAt,value
2017-09-25T00:00:46.106Z,79.40
2017-09-25T00:03:13.023Z,79.70
2017-09-25T00:05:39.939Z,80.20
2017-09-25T00:08:06.090Z,80.20
2017-09-25T00:10:33.453Z,80.30
2017-09-25T00:12:59.654Z,79.70
2017-09-25T00:15:28.697Z,79.50
2017-09-25T00:17:55.590Z,80.10
2017-09-25T00:20:21.840Z,79.60
2017-09-25T00:22:48.036Z,79.70
2017-09-25T00:25:14.664Z,79.80
2017-09-25T00:27:40.872Z,80.30
2017-09-25T00:30:07.865Z,80.20
2017-09-25T00:32:34.317Z,79.60
2017-09-25T00:35:00.542Z,79.80
2017-09-25T00:37:26.738Z,80.10
2017-09-25T00:39:54.783Z,79.90
2017-09-25T00:42:21.739Z,80.30
2017-09-25T00:44:48.007Z,80.30
2017-09-25T00:47:14.227Z,79.90
2017-09-25T00:49:40.427Z,79.60
2017-09-25T00:52:07.333Z,79.20
2017-09-25T00:54:33.578Z,79.20
2017-09-25T00:57:00.500Z,79.70
2017-09-25T00:59:28.294Z,79.30
2017-09-25T01:02:09.916Z,79.90
2017-09-25T01:04:48.822Z,79.60
2017-09-25T01:07:14.995Z,79.60
2017-09-25T01:09:41.157Z,80.10
2017-09-25T01:12:09.080Z,80.40
2017-09-25T01:14:35.287Z,80.30
2017-09-25T01:17:01.461Z,80.10
2017-09-25T01:19:27.660Z,80.30
2017-09-25T01:21:54.076Z,80.50
2017-09-25T01:24:20.494Z,80.40
2017-09-25T01:26:46.694Z,81.10
2017-09-25T01:29:14.396Z,81.20
2017-09-25T01:31:40.606Z,81.20
2017-09-25T01:34:07.503Z,81.80
2017-09-25T01:36:33.666Z,81.70
2017-09-25T01:38:59.893Z,81.10
2017-09-25T01:41:27.567Z,82.00
2017-09-25T01:43:55.521Z,82.30
2017-09-25T01:46:21.675Z,81.50
2017-09-25T01:48:49.399Z,82.30
2017-09-25T01:51:15.604Z,81.80
2017-09-25T01:53:41.798Z,81.80
2017-09-25T01:56:08.700Z,81.80
2017-09-25T01:58:36.263Z,81.60
2017-09-25T02:01:02.628Z,82.20
2017-09-25T02:03:29.920Z,82.60
2017-09-25T02:05:56.133Z,82.10
2017-09-25T02:08:22.289Z,82.10
2017-09-25T02:10:48.494Z,82.50
2017-09-25T02:13:15.338Z,82.00
2017-09-25T02:15:41.532Z,81.90
2017-09-25T02:18:07.682Z,82.10
2017-09-25T02:20:33.859Z,82.20
2017-09-25T02:23:00.062Z,84.80
2017-09-25T02:25:27.343Z,82.00
2017-09-25T02:27:54.325Z,81.70
2017-09-25T02:30:21.264Z,82.20
2017-09-25T02:32:48.169Z,82.30
2017-09-25T02:35:14.335Z,81.90
2017-09-25T02:37:41.254Z,81.90
2017-09-25T02:40:07.407Z,81.50
2017-09-25T02:42:34.332Z,81.50
2017-09-25T02:45:01.329Z,81.40
2017-09-25T02:47:27.507Z,80.80
2017-09-25T02:49:53.668Z,80.80
2017-09-25T02:52:20.607Z,81.40
2017-09-25T02:54:47.532Z,81.70
2017-09-25T02:57:13.696Z,81.10
2017-09-25T02:59:40.201Z,80.80
2017-09-25T03:02:06.406Z,80.50
2017-09-25T03:04:32.583Z,80.50
2017-09-25T03:06:58.752Z,80.40
2017-09-25T03:09:24.951Z,80.80
2017-09-25T03:11:51.159Z,80.90
2017-09-25T03:14:18.409Z,82.00
2017-09-25T03:16:45.329Z,81.40
2017-09-25T03:19:11.502Z,80.90
2017-09-25T03:21:37.674Z,80.70
2017-09-25T03:24:03.841Z,80.60
2017-09-25T03:26:31.044Z,81.10
2017-09-25T03:28:57.234Z,80.50
2017-09-25T03:31:24.158Z,80.40
2017-09-25T03:33:51.143Z,81.00
2017-09-25T03:36:17.329Z,80.40
2017-09-25T03:38:44.263Z,81.00
2017-09-25T03:41:11.941Z,80.80
2017-09-25T03:43:38.844Z,80.90
2017-09-25T03:46:04.990Z,80.60
2017-09-25T03:48:31.154Z,80.30
2017-09-25T03:50:58.101Z,80.60
2017-09-25T03:53:25.074Z,80.20
2017-09-25T03:55:51.281Z,79.80
2017-09-25T03:58:17.443Z,80.20
2017-09-25T04:00:43.595Z,80.20
2017-09-25T04:03:09.835Z,79.70
2017-09-25T04:05:36.240Z,80.30
2017-09-25T04:08:02.484Z,80.10
2017-09-25T04:10:28.682Z,80.30
2017-09-25T04:12:54.876Z,80.00
2017-09-25T04:15:21.081Z,80.10
2017-09-25T04:17:48.766Z,80.30
2017-09-25T04:20:16.107Z,80.30
2017-09-25T04:22:43.034Z,81.30
2017-09-25T04:25:09.255Z,80.90
2017-09-25T04:27:35.475Z,81.20
2017-09-25T04:30:01.643Z,81.00
2017-09-25T04:32:28.578Z,82.00
2017-09-25T04:34:55.538Z,82.90
2017-09-25T04:37:22.448Z,82.40
2017-09-25T04:39:48.630Z,81.90
2017-09-25T04:42:15.642Z,81.50
2017-09-25T04:44:41.859Z,81.30
2017-09-25T04:47:09.570Z,81.10
2017-09-25T04:49:35.778Z,80.40
2017-09-25T04:52:02.686Z,80.80
2017-09-25T04:54:28.896Z,80.30
2017-09-25T04:56:55.055Z,80.20
2017-09-25T04:59:21.244Z,80.30
2017-09-25T05:01:47.427Z,85.20
2017-09-25T05:04:14.386Z,86.60
2017-09-25T05:06:41.319Z,80.40
2017-09-25T05:09:08.222Z,80.30
2017-09-25T05:11:34.391Z,79.60
2017-09-25T05:14:00.613Z,78.60
2017-09-25T05:16:27.642Z,79.10
2017-09-25T05:18:53.830Z,78.30
2017-09-25T05:21:20.007Z,78.50
2017-09-25T05:23:47.739Z,79.10
2017-09-25T05:26:13.969Z,79.20
2017-09-25T05:28:40.167Z,79.00
2017-09-25T05:31:06.336Z,79.40
2017-09-25T05:33:32.559Z,79.20
2017-09-25T05:35:58.723Z,79.60
2017-09-25T05:38:25.641Z,80.10
2017-09-25T05:40:51.855Z,79.50
2017-09-25T05:43:18.059Z,80.10
2017-09-25T05:45:44.541Z,80.50
2017-09-25T05:48:10.798Z,80.20
2017-09-25T05:50:37.744Z,80.30
2017-09-25T05:53:04.674Z,80.20
2017-09-25T05:55:34.305Z,80.10
2017-09-25T05:58:01.240Z,80.10
2017-09-25T06:00:27.423Z,79.60
2017-09-25T06:02:53.601Z,79.40
2017-09-25T06:05:20.576Z,79.30
2017-09-25T06:07:46.733Z,79.00
2017-09-25T06:10:12.911Z,78.50
2017-09-25T06:12:39.852Z,78.00
2017-09-25T06:15:06.787Z,77.50
2017-09-25T06:17:33.684Z,77.10
2017-09-25T06:19:59.852Z,77.10
2017-09-25T06:22:26.062Z,76.50
2017-09-25T06:24:52.215Z,76.60
2017-09-25T06:27:18.434Z,76.60
2017-09-25T06:29:44.606Z,76.70
2017-09-25T06:32:10.843Z,76.60
2017-09-25T06:34:37.015Z,75.20
2017-09-25T06:37:03.976Z,76.00
2017-09-25T06:39:30.924Z,75.80
2017-09-25T06:41:57.143Z,75.00
2017-09-25T06:44:23.329Z,75.00
2017-09-25T06:46:49.496Z,75.00
2017-09-25T06:49:16.574Z,74.60
2017-09-25T06:51:43.627Z,74.60
2017-09-25T06:54:10.658Z,74.70
2017-09-25T06:56:37.809Z,73.80
2017-09-25T06:59:04.748Z,73.00
2017-09-25T07:01:31.778Z,71.70
2017-09-25T07:03:58.191Z,70.40
2017-09-25T07:06:24.536Z,68.80
2017-09-25T07:08:50.852Z,67.30
2017-09-25T07:11:17.267Z,68.00
2017-09-25T07:13:43.513Z,67.00
2017-09-25T07:16:09.827Z,64.90
2017-09-25T07:18:36.085Z,64.10
2017-09-25T07:21:02.398Z,64.60
2017-09-25T07:23:28.654Z,63.80
2017-09-25T07:25:54.925Z,61.70
2017-09-25T07:28:21.212Z,61.60
2017-09-25T07:30:49.235Z,60.30
2017-09-25T07:33:15.476Z,60.90
2017-09-25T07:35:42.152Z,58.10
2017-09-25T07:38:08.403Z,57.30
2017-09-25T07:40:34.605Z,56.80
2017-09-25T07:43:00.794Z,55.70
2017-09-25T07:45:27.060Z,56.30
2017-09-25T07:47:53.339Z,54.90
2017-09-25T07:50:20.327Z,55.60
2017-09-25T07:52:46.644Z,54.50
2017-09-25T07:55:13.031Z,53.30
2017-09-25T07:57:39.225Z,53.50
2017-09-25T08:00:06.282Z,53.70
2017-09-25T08:02:32.503Z,52.90
2017-09-25T08:04:58.776Z,52.70
2017-09-25T08:07:25.738Z,52.60
2017-09-25T08:09:52.017Z,51.90
2017-09-25T08:12:18.294Z,52.00
2017-09-25T08:14:45.312Z,51.70
2017-09-25T08:17:11.531Z,51.20
2017-09-25T08:19:37.811Z,51.10
2017-09-25T08:22:04.094Z,51.00
2017-09-25T08:24:30.356Z,51.50
2017-09-25T08:26:57.336Z,52.20
2017-09-25T08:29:23.526Z,52.20
2017-09-25T08:31:50.588Z,52.90
2017-09-25T08:34:17.533Z,52.80
2017-09-25T08:36:43.756Z,52.70
2017-09-25T08:39:10.753Z,53.00
2017-09-25T08:41:36.978Z,53.00
2017-09-25T08:44:03.232Z,53.50
2017-09-25T08:46:29.434Z,52.50
2017-09-25T08:48:55.731Z,52.50
2017-09-25T08:51:21.943Z,51.50
2017-09-25T08:53:48.872Z,53.50
2017-09-25T08:56:15.119Z,52.70
2017-09-25T08:58:42.134Z,53.40
2017-09-25T09:01:08.318Z,52.90
2017-09-25T09:03:34.563Z,51.90
2017-09-25T09:06:01.747Z,51.70
2017-09-25T09:08:40.370Z,52.30
2017-09-25T09:11:06.583Z,51.90
2017-09-25T09:13:32.852Z,51.90
2017-09-25T09:15:59.840Z,51.50
2017-09-25T09:18:26.106Z,51.00
2017-09-25T09:20:52.387Z,50.90
2017-09-25T09:23:18.614Z,51.10
2017-09-25T09:25:44.800Z,51.00
2017-09-25T09:28:11.072Z,50.30
2017-09-25T09:30:37.276Z,50.50
2017-09-25T09:33:04.242Z,49.50
2017-09-25T09:35:30.584Z,48.80
2017-09-25T09:37:56.950Z,48.80
2017-09-25T09:40:23.239Z,49.30
2017-09-25T09:42:49.459Z,49.40
2017-09-25T09:45:15.658Z,49.20
2017-09-25T09:47:41.927Z,49.80
2017-09-25T09:50:08.290Z,47.90
2017-09-25T09:52:34.537Z,49.40
2017-09-25T09:55:00.786Z,48.50
2017-09-25T10:00:16.220Z,48.60
2017-09-25T10:02:42.428Z,47.70
2017-09-25T10:05:09.363Z,48.60
2017-09-25T10:07:36.335Z,47.70
2017-09-25T10:10:02.600Z,47.70
2017-09-25T10:12:28.808Z,48.30
2017-09-25T10:14:55.004Z,48.00
2017-09-25T10:17:21.973Z,47.80
2017-09-25T10:19:48.185Z,47.70
2017-09-25T10:22:15.186Z,47.50
2017-09-25T10:24:41.385Z,47.60
2017-09-25T10:27:08.727Z,46.90
2017-09-25T10:29:34.942Z,46.00
2017-09-25T10:32:01.868Z,46.60
2017-09-25T10:34:28.833Z,46.00
2017-09-25T10:36:55.815Z,46.20
2017-09-25T10:39:21.973Z,46.20
2017-09-25T10:41:48.168Z,45.60
2017-09-25T10:44:14.385Z,46.20
2017-09-25T10:46:40.608Z,45.90
2017-09-25T10:49:06.896Z,45.20
2017-09-25T10:51:33.169Z,45.90
2017-09-25T10:53:59.375Z,46.90
2017-09-25T10:56:26.375Z,46.20
2017-09-25T10:58:52.984Z,43.60
2017-09-25T11:01:19.872Z,44.20
2017-09-25T11:03:46.097Z,43.90
2017-09-25T11:06:13.804Z,42.90
2017-09-25T11:08:40.775Z,46.30
2017-09-25T11:11:06.983Z,46.30
2017-09-25T11:13:33.931Z,45.10
2017-09-25T11:16:00.151Z,45.00
2017-09-25T11:18:27.175Z,44.10
2017-09-25T11:20:53.441Z,43.30
2017-09-25T11:23:19.650Z,43.40
2017-09-25T11:25:48.173Z,43.80
2017-09-25T11:37:59.425Z,41.10
2017-09-25T11:40:25.605Z,42.20
2017-09-25T11:42:51.819Z,42.80
2017-09-25T11:45:19.956Z,41.80
2017-09-25T11:47:46.163Z,41.60
2017-09-25T11:50:12.387Z,42.50
2017-09-25T12:02:23.622Z,41.50
2017-09-25T12:04:50.539Z,41.10
2017-09-25T12:07:17.093Z,41.20
2017-09-25T12:09:44.133Z,42.90
2017-09-25T12:12:10.344Z,44.80
2017-09-25T12:14:39.048Z,43.90
2017-09-25T12:17:05.227Z,40.20
2017-09-25T12:19:31.547Z,40.60
2017-09-25T12:21:57.822Z,43.00
2017-09-25T12:24:24.004Z,42.80
2017-09-25T12:26:50.294Z,42.70
2017-09-25T12:29:16.542Z,43.30
2017-09-25T12:31:43.796Z,45.90
2017-09-25T12:34:10.800Z,47.10
2017-09-25T12:36:37.012Z,46.40
2017-09-25T12:39:03.414Z,47.80
2017-09-25T12:41:31.204Z,48.80
2017-09-25T12:43:57.446Z,48.20
2017-09-25T12:46:23.655Z,49.20
2017-09-25T12:48:49.872Z,49.50
2017-09-25T12:51:16.037Z,49.50
2017-09-25T12:53:42.309Z,49.70
2017-09-25T12:56:09.412Z,50.50
2017-09-25T12:58:35.625Z,50.10
2017-09-25T13:01:04.465Z,50.60
2017-09-25T13:03:30.683Z,51.10
2017-09-25T13:05:57.620Z,50.70
2017-09-25T13:08:23.834Z,50.90
2017-09-25T13:10:50.034Z,50.20
2017-09-25T13:13:16.265Z,50.00
2017-09-25T13:15:42.482Z,50.70
2017-09-25T13:18:10.944Z,49.60
2017-09-25T13:20:37.970Z,50.20
2017-09-25T13:23:04.220Z,50.40
2017-09-25T13:25:30.437Z,51.00
2017-09-25T13:27:56.669Z,51.30
2017-09-25T13:30:22.904Z,50.90
2017-09-25T13:32:49.112Z,51.10
2017-09-25T13:35:30.880Z,52.80
2017-09-25T13:37:57.230Z,50.50
2017-09-25T13:40:27.114Z,51.60
2017-09-25T13:42:53.363Z,50.50
2017-09-25T13:45:20.027Z,50.50
2017-09-25T13:47:46.243Z,50.40
2017-09-25T13:50:12.437Z,50.90
2017-09-25T13:52:38.644Z,50.50
2017-09-25T14:06:29.216Z,49.70
2017-09-25T14:08:56.178Z,51.40
2017-09-25T14:11:23.209Z,50.10
2017-09-25T14:13:50.163Z,49.50
2017-09-25T14:16:17.108Z,50.20
2017-09-25T14:18:44.126Z,49.40
2017-09-25T14:21:10.355Z,48.80
2017-09-25T14:23:36.588Z,48.20
2017-09-25T14:26:03.715Z,50.40
2017-09-25T14:28:29.976Z,50.80
2017-09-25T14:30:56.227Z,50.20
2017-09-25T14:33:23.222Z,52.00
2017-09-25T14:35:49.463Z,50.60
2017-09-25T14:38:15.774Z,51.30
2017-09-25T14:40:42.034Z,50.20
2017-09-25T14:43:08.314Z,50.70
2017-09-25T14:45:35.363Z,50.80
2017-09-25T14:48:02.670Z,51.30
2017-09-25T14:50:28.925Z,50.00
2017-09-25T14:52:55.931Z,51.20
2017-09-25T15:05:07.603Z,52.20
2017-09-25T15:07:33.883Z,52.60
2017-09-25T15:10:00.075Z,52.40
2017-09-25T15:12:27.805Z,53.50
2017-09-25T15:14:54.056Z,53.50
2017-09-25T15:17:20.280Z,53.40
2017-09-25T15:19:46.456Z,53.40
2017-09-25T15:22:12.653Z,53.40
2017-09-25T15:24:39.620Z,53.80
2017-09-25T15:27:06.637Z,54.30
2017-09-25T15:29:32.805Z,53.60
2017-09-25T15:31:58.995Z,53.70
2017-09-25T15:34:25.207Z,53.80
2017-09-25T15:36:51.400Z,53.80
2017-09-25T15:39:17.616Z,53.50
2017-09-25T15:41:43.878Z,54.10
2017-09-25T15:44:10.081Z,53.90
2017-09-25T15:46:36.287Z,54.10
2017-09-25T15:49:02.505Z,54.30
2017-09-25T15:51:29.415Z,55.40
2017-09-25T15:53:55.601Z,55.00
2017-09-25T15:56:21.815Z,55.10
2017-09-25T15:58:48.702Z,55.90
2017-09-25T16:01:14.993Z,55.30
2017-09-25T16:03:42.452Z,56.30
2017-09-25T16:06:09.703Z,56.70
2017-09-25T16:08:36.619Z,57.20
2017-09-25T16:11:02.853Z,56.90
2017-09-25T16:13:29.052Z,57.00
2017-09-25T16:15:55.296Z,57.00
2017-09-25T16:18:21.517Z,56.90
2017-09-25T16:20:49.264Z,56.90
2017-09-25T16:23:16.500Z,57.10
2017-09-25T16:25:44.324Z,57.20
2017-09-25T16:28:11.099Z,57.80
2017-09-25T16:30:38.051Z,58.20
2017-09-25T16:33:04.263Z,57.80
2017-09-25T16:35:31.407Z,58.40
2017-09-25T16:37:58.405Z,58.60
2017-09-25T16:40:24.625Z,58.70
2017-09-25T16:42:54.512Z,58.90
2017-09-25T16:45:20.713Z,59.20
2017-09-25T16:47:46.937Z,59.30
2017-09-25T16:50:13.144Z,59.20
2017-09-25T16:52:40.130Z,60.10
2017-09-25T16:55:07.246Z,61.00
2017-09-25T16:57:34.401Z,60.30
2017-09-25T17:00:01.592Z,60.70
2017-09-25T17:02:28.838Z,60.50
2017-09-25T17:04:56.432Z,61.00
2017-09-25T17:07:22.740Z,61.10
2017-09-25T17:09:50.486Z,60.90
2017-09-25T17:12:16.714Z,61.20
2017-09-25T17:17:11.277Z,62.50
2017-09-25T17:19:37.696Z,63.30
2017-09-25T17:22:04.157Z,63.60
2017-09-25T17:24:30.538Z,64.20
2017-09-25T17:26:56.973Z,64.60
2017-09-25T17:29:23.504Z,64.60
2017-09-25T17:31:50.746Z,65.50
2017-09-25T17:34:18.218Z,65.60
2017-09-25T17:36:44.726Z,65.50
2017-09-25T17:39:11.306Z,65.80
2017-09-25T17:41:37.848Z,66.20
2017-09-25T17:44:04.286Z,66.70
2017-09-25T17:56:15.543Z,67.70
2017-09-25T17:58:44.355Z,68.50
2017-09-25T18:01:11.116Z,67.70
2017-09-25T18:03:38.002Z,67.80
2017-09-25T18:06:04.920Z,67.90
2017-09-25T18:08:33.196Z,68.00
2017-09-25T18:11:01.275Z,68.70
2017-09-25T18:13:28.214Z,68.60
2017-09-25T18:15:55.396Z,68.90
2017-09-25T18:18:21.752Z,68.10
2017-09-25T18:20:48.748Z,68.60
2017-09-25T18:23:15.777Z,68.90
2017-09-25T18:25:45.810Z,68.60
2017-09-25T18:28:12.904Z,69.10
2017-09-25T18:30:39.167Z,68.60
2017-09-25T18:33:05.387Z,68.50
2017-09-25T18:35:31.621Z,68.40
2017-09-25T18:37:57.846Z,68.80
2017-09-25T18:40:24.085Z,68.90
2017-09-25T18:42:50.327Z,68.70
2017-09-25T18:45:16.577Z,68.80
2017-09-25T18:47:43.525Z,69.80
2017-09-25T18:50:10.570Z,69.40
2017-09-25T18:52:38.532Z,68.80
2017-09-25T18:55:06.293Z,69.80
2017-09-25T18:57:32.488Z,69.40
2017-09-25T18:59:59.065Z,69.50
2017-09-25T19:02:26.056Z,70.00
2017-09-25T19:04:52.316Z,69.80
2017-09-25T19:07:18.635Z,69.80
2017-09-25T19:09:44.865Z,70.30
2017-09-25T19:12:12.224Z,70.00
2017-09-25T19:14:38.535Z,69.80
2017-09-25T19:17:04.783Z,70.00
2017-09-25T19:19:31.052Z,69.80
2017-09-25T19:21:57.335Z,70.30
2017-09-25T19:24:23.596Z,70.10
2017-09-25T19:26:52.891Z,70.10
2017-09-25T19:29:19.880Z,70.60
2017-09-25T19:31:46.087Z,70.90
2017-09-25T19:34:13.105Z,71.20
2017-09-25T19:36:39.378Z,71.10
2017-09-25T19:39:06.449Z,71.20
2017-09-25T19:41:32.744Z,71.30
2017-09-25T19:43:59.720Z,71.60
2017-09-25T19:46:25.989Z,71.00
2017-09-25T19:48:56.914Z,71.00
2017-09-25T19:51:24.035Z,71.10
2017-09-25T19:53:54.534Z,71.10
2017-09-25T19:56:25.278Z,71.40
2017-09-25T19:58:52.396Z,72.00
2017-09-25T20:01:21.917Z,71.60
2017-09-25T20:03:48.348Z,71.20
2017-09-25T20:06:15.334Z,72.50
2017-09-25T20:08:42.291Z,71.10
2017-09-25T20:11:09.803Z,71.70
2017-09-25T20:13:37.367Z,71.60
2017-09-25T20:19:09.618Z,71.90
2017-09-25T20:21:36.577Z,71.20
2017-09-25T20:24:02.767Z,71.40
2017-09-25T20:26:29.764Z,71.60
2017-09-25T20:28:56.924Z,71.80
2017-09-25T20:31:23.227Z,71.90
2017-09-25T20:33:49.468Z,71.90
2017-09-25T20:36:18.134Z,72.10
2017-09-25T20:38:46.036Z,72.40
2017-09-25T20:41:14.025Z,72.60
2017-09-25T20:43:54.492Z,73.20
2017-09-25T20:46:21.533Z,73.00
2017-09-25T20:48:48.907Z,72.60
2017-09-25T20:51:16.694Z,72.70
2017-09-25T20:53:45.178Z,72.70
2017-09-25T20:56:11.387Z,72.80
2017-09-25T20:58:39.262Z,72.80
2017-09-25T21:01:05.505Z,73.00
2017-09-25T21:03:31.720Z,73.30
2017-09-25T21:05:57.950Z,73.30
2017-09-25T21:08:24.279Z,73.30
2017-09-25T21:10:52.524Z,73.30
2017-09-25T21:13:21.652Z,73.90
2017-09-25T21:15:48.089Z,73.30
2017-09-25T21:18:15.292Z,73.30
2017-09-25T21:20:42.474Z,73.30
2017-09-25T21:23:09.412Z,73.80
2017-09-25T21:25:36.983Z,73.70
2017-09-25T21:28:03.216Z,72.90
2017-09-25T21:30:29.615Z,72.90
2017-09-25T21:32:56.639Z,73.50
2017-09-25T21:35:22.842Z,73.00
2017-09-25T21:37:49.048Z,72.90
2017-09-25T21:40:18.600Z,73.60
2017-09-25T21:42:44.909Z,73.30
2017-09-25T21:45:11.293Z,73.20
2017-09-25T21:47:37.810Z,73.50
2017-09-25T21:50:04.096Z,73.40
2017-09-25T21:52:32.377Z,73.70
2017-09-25T21:54:59.150Z,73.70
2017-09-25T21:57:26.237Z,73.60
2017-09-25T21:59:52.836Z,73.60
2017-09-25T22:02:19.203Z,73.60
2017-09-25T22:04:47.162Z,73.90
2017-09-25T22:07:14.048Z,74.10
2017-09-25T22:09:40.410Z,74.30
2017-09-25T22:12:07.617Z,74.30
2017-09-25T22:14:33.899Z,74.30
2017-09-25T22:17:00.136Z,74.80
2017-09-25T22:19:26.315Z,74.80
2017-09-25T22:21:54.363Z,74.80
2017-09-25T22:24:21.562Z,75.20
2017-09-25T22:26:49.867Z,74.80
2017-09-25T22:29:16.065Z,75.00
2017-09-25T22:31:42.397Z,75.00
2017-09-25T22:34:08.675Z,75.00
2017-09-25T22:36:39.611Z,75.60
2017-09-25T22:39:06.699Z,75.90
2017-09-25T22:41:33.663Z,75.30
2017-09-25T22:44:13.774Z,75.10
2017-09-25T22:46:43.899Z,75.10
2017-09-25T22:49:10.875Z,74.80
2017-09-25T22:51:37.462Z,74.10
2017-09-25T22:54:03.662Z,74.30
2017-09-25T22:56:29.894Z,73.90
2017-09-25T22:58:56.878Z,74.50
2017-09-25T23:01:24.648Z,74.60
2017-09-25T23:06:42.146Z,75.10
2017-09-25T23:09:08.825Z,74.80
2017-09-25T23:11:35.854Z,75.80
2017-09-25T23:14:02.062Z,75.00
2017-09-25T23:16:28.236Z,75.20
2017-09-25T23:18:55.227Z,76.30
2017-09-25T23:21:23.113Z,75.10
2017-09-25T23:23:49.297Z,75.50
2017-09-25T23:26:16.488Z,75.90
2017-09-25T23:31:11.637Z,75.70
2017-09-25T23:33:37.859Z,75.50
2017-09-25T23:36:04.102Z,76.20
2017-09-25T23:38:30.306Z,76.40
2017-09-25T23:40:57.223Z,76.80
2017-09-25T23:43:23.471Z,76.70
2017-09-25T23:45:49.762Z,77.20
2017-09-25T23:48:16.722Z,77.30
2017-09-25T23:50:42.953Z,77.10
2017-09-25T23:53:09.140Z,77.10
2017-09-25T23:55:35.354Z,77.00
2017-09-25T23:58:01.598Z,76.70
